Time;durP1;ratioP1;P1;durP2;ratioP2;P2;SDS_P1;SDS_P2;PMS_P1;PMS_P2;Temp;Humidity;BMP_temperature;BMP_pressure;BME280_temperature;BME280_humidity;BME280_pressure;Samples;Min_cycle;Max_cycle;Signal;HPM_P1;HPM_P2
2021/05/05 00:00:58;;;;;;;5.93;1.30;;;7.80;99.90;;;;;;5046026;28;20187;-54
2021/05/05 00:03:24;;;;;;;5.20;1.00;;;7.90;99.90;;;;;;5037724;28;20223;-52
2021/05/05 00:05:52;;;;;;;3.37;1.10;;;7.90;99.90;;;;;;5041074;28;20192;-54
2021/05/05 00:08:18;;;;;;;3.33;1.20;;;7.90;99.90;;;;;;5041885;28;20287;-52
2021/05/05 00:10:45;;;;;;;3.27;0.70;;;7.90;99.90;;;;;;5023837;28;20562;-54
2021/05/05 00:13:11;;;;;;;3.90;0.70;;;7.90;99.90;;;;;;5025253;28;20224;-50
2021/05/05 00:15:38;;;;;;;5.67;0.90;;;8.00;99.90;;;;;;5054681;28;20186;-53
2021/05/05 00:18:04;;;;;;;3.27;0.80;;;8.00;99.90;;;;;;5039679;28;20272;-49
2021/05/05 00:20:31;;;;;;;1.40;0.70;;;8.00;99.90;;;;;;5036198;28;20253;-48
2021/05/05 00:22:57;;;;;;;4.63;0.60;;;8.00;99.90;;;;;;5038966;28;20215;-53
2021/05/05 00:25:23;;;;;;;4.90;1.07;;;8.00;99.90;;;;;;5043210;28;20252;-50
2021/05/05 00:27:51;;;;;;;4.57;0.80;;;7.90;99.90;;;;;;5034122;28;20194;-52
2021/05/05 00:30:20;;;;;;;1.10;0.50;;;7.90;99.90;;;;;;5046910;28;20252;-49
2021/05/05 00:32:46;;;;;;;5.07;0.83;;;7.90;99.90;;;;;;5059575;28;20219;-53
2021/05/05 00:35:13;;;;;;;3.83;0.70;;;7.90;99.90;;;;;;5043436;28;20191;-50
2021/05/05 00:37:39;;;;;;;2.50;0.77;;;7.90;99.90;;;;;;5041888;28;20219;-54
2021/05/05 00:40:08;;;;;;;1.63;0.60;;;7.90;99.90;;;;;;5042968;28;20202;-50
2021/05/05 00:42:34;;;;;;;3.60;1.00;;;7.90;99.90;;;;;;5041580;28;20234;-50
2021/05/05 00:45:03;;;;;;;1.50;0.50;;;7.80;99.90;;;;;;5037719;28;20206;-52
2021/05/05 00:47:29;;;;;;;2.13;0.90;;;7.80;99.90;;;;;;5042105;28;20214;-49
2021/05/05 00:49:56;;;;;;;3.90;0.50;;;7.80;99.90;;;;;;5041875;28;20214;-54
2021/05/05 00:52:23;;;;;;;2.93;0.90;;;7.80;99.90;;;;;;5047935;28;20250;-49
2021/05/05 00:54:49;;;;;;;2.63;1.20;;;7.80;99.90;;;;;;5040901;28;20207;-54
2021/05/05 00:57:16;;;;;;;4.43;1.00;;;7.80;99.90;;;;;;5048712;28;20221;-50
2021/05/05 00:59:42;;;;;;;3.60;0.80;;;7.80;99.90;;;;;;5044497;28;20643;-54
2021/05/05 01:02:09;;;;;;;3.47;0.80;;;7.80;99.90;;;;;;5046993;28;20272;-50
2021/05/05 01:04:36;;;;;;;3.07;0.70;;;7.80;99.90;;;;;;5041105;28;20199;-52
2021/05/05 01:07:02;;;;;;;1.53;0.73;;;7.80;99.90;;;;;;5038911;28;20201;-48
2021/05/05 01:09:28;;;;;;;2.17;1.10;;;7.80;99.90;;;;;;5057574;28;20672;-51
2021/05/05 01:11:55;;;;;;;3.17;0.90;;;7.80;99.90;;;;;;5041997;28;20933;-51
2021/05/05 01:14:21;;;;;;;4.43;0.93;;;7.80;99.90;;;;;;5052101;28;20218;-51
2021/05/05 01:16:49;;;;;;;3.77;0.83;;;7.80;99.90;;;;;;5040051;28;20219;-55
2021/05/05 01:19:16;;;;;;;4.20;1.00;;;7.80;99.90;;;;;;5049429;28;20257;-49
2021/05/05 01:21:44;;;;;;;6.33;0.60;;;7.80;99.90;;;;;;5038935;28;20277;-54
2021/05/05 01:24:11;;;;;;;0.77;0.47;;;7.70;99.90;;;;;;5052515;28;20194;-53
2021/05/05 01:26:39;;;;;;;2.00;0.60;;;7.70;99.90;;;;;;5062187;28;20243;-55
2021/05/05 01:29:06;;;;;;;3.60;0.50;;;7.70;99.90;;;;;;5063326;28;20835;-51
2021/05/05 01:31:32;;;;;;;1.30;0.60;;;7.70;99.90;;;;;;5047147;28;20676;-51
2021/05/05 01:33:59;;;;;;;2.57;0.90;;;7.70;99.90;;;;;;5036132;28;20222;-49
2021/05/05 01:36:33;;;;;;;2.57;0.63;;;7.80;99.90;;;;;;5045764;28;20234;-53
2021/05/05 01:39:01;;;;;;;1.83;0.50;;;7.80;99.90;;;;;;5045522;28;20225;-50
2021/05/05 01:41:27;;;;;;;3.77;0.60;;;7.80;99.90;;;;;;5042428;28;20437;-50
2021/05/05 01:43:54;;;;;;;1.93;0.60;;;7.80;99.90;;;;;;5047997;28;20227;-49
2021/05/05 01:46:22;;;;;;;2.40;0.60;;;7.80;99.90;;;;;;5044084;28;20203;-50
2021/05/05 01:48:48;;;;;;;3.03;0.80;;;7.80;99.90;;;;;;5051838;28;20608;-56
2021/05/05 01:51:15;;;;;;;3.67;0.57;;;7.80;99.90;;;;;;5058114;28;20285;-49
2021/05/05 01:53:42;;;;;;;2.80;0.63;;;7.80;99.90;;;;;;5049325;28;20229;-54
2021/05/05 01:56:09;;;;;;;5.57;1.53;;;7.80;99.90;;;;;;5042684;28;20183;-50
2021/05/05 01:58:37;;;;;;;2.03;0.60;;;7.70;99.90;;;;;;5042825;28;20261;-54
2021/05/05 02:01:04;;;;;;;1.07;0.40;;;7.70;99.90;;;;;;5029938;28;20220;-52
2021/05/05 02:03:31;;;;;;;8.60;1.00;;;7.70;99.90;;;;;;5055803;28;20218;-51
2021/05/05 02:06:04;;;;;;;4.90;1.10;;;7.70;99.90;;;;;;5022818;28;20274;-49
2021/05/05 02:08:37;;;;;;;2.80;0.90;;;7.70;99.90;;;;;;5037171;28;20281;-56
2021/05/05 02:11:04;;;;;;;5.50;1.07;;;7.70;99.90;;;;;;5053995;28;20308;-50
2021/05/05 02:13:32;;;;;;;3.70;0.70;;;7.70;99.90;;;;;;5045295;28;20235;-49
2021/05/05 02:15:59;;;;;;;3.63;1.10;;;7.70;99.90;;;;;;5048237;28;20194;-51
2021/05/05 02:18:26;;;;;;;3.37;0.73;;;7.70;99.90;;;;;;5030170;28;20235;-50
2021/05/05 02:20:53;;;;;;;3.13;0.70;;;7.70;99.90;;;;;;5053662;28;20210;-55
2021/05/05 02:23:20;;;;;;;1.70;0.53;;;7.70;99.90;;;;;;5059569;28;20222;-49
2021/05/05 02:25:47;;;;;;;2.57;0.40;;;7.60;99.90;;;;;;5041278;28;20766;-56
2021/05/05 02:28:13;;;;;;;6.40;0.83;;;7.60;99.90;;;;;;5044184;28;20191;-51
2021/05/05 02:31:01;;;;;;;4.57;0.70;;;7.60;99.90;;;;;;5035428;28;20283;-50
2021/05/05 02:33:28;;;;;;;3.77;0.83;;;7.60;99.90;;;;;;5038119;28;20233;-50
2021/05/05 02:35:55;;;;;;;1.70;0.50;;;7.60;99.90;;;;;;5049458;28;20292;-53
2021/05/05 02:38:21;;;;;;;1.07;0.60;;;7.60;99.90;;;;;;5051870;28;20215;-53
2021/05/05 02:40:48;;;;;;;1.47;0.53;;;7.60;99.90;;;;;;5045796;28;20593;-52
2021/05/05 02:43:16;;;;;;;2.23;0.53;;;7.60;99.90;;;;;;5044533;28;20234;-53
2021/05/05 02:45:42;;;;;;;3.23;0.60;;;7.60;99.90;;;;;;5041821;28;20206;-55
2021/05/05 02:48:11;;;;;;;4.47;0.90;;;7.60;99.90;;;;;;5032681;28;20218;-49
2021/05/05 02:50:38;;;;;;;1.90;0.60;;;7.60;99.90;;;;;;5054756;28;20206;-54
2021/05/05 02:53:06;;;;;;;1.70;0.90;;;7.50;99.90;;;;;;5041246;28;20981;-51
2021/05/05 02:55:32;;;;;;;3.10;0.80;;;7.50;99.90;;;;;;5044772;28;20222;-49
2021/05/05 02:57:59;;;;;;;1.60;0.60;;;7.50;99.90;;;;;;5035226;28;20211;-50
2021/05/05 03:00:25;;;;;;;2.03;0.90;;;7.50;99.90;;;;;;5043776;28;20199;-49
2021/05/05 03:02:51;;;;;;;1.93;0.70;;;7.40;99.90;;;;;;5041210;28;20290;-56
2021/05/05 03:05:18;;;;;;;3.40;0.67;;;7.40;99.90;;;;;;5039431;28;20617;-51
2021/05/05 03:07:44;;;;;;;3.20;0.90;;;7.40;99.90;;;;;;5052338;28;20209;-55
2021/05/05 03:10:12;;;;;;;3.53;0.77;;;7.40;99.90;;;;;;5049323;28;20218;-51
2021/05/05 03:12:39;;;;;;;4.07;0.60;;;7.30;99.90;;;;;;5037717;28;20234;-54
2021/05/05 03:15:07;;;;;;;3.10;1.00;;;7.30;99.90;;;;;;5041741;28;20191;-51
2021/05/05 03:17:33;;;;;;;5.93;0.83;;;7.30;99.90;;;;;;5044182;28;20222;-52
2021/05/05 03:19:59;;;;;;;2.40;0.80;;;7.30;99.90;;;;;;5029769;28;20198;-51
2021/05/05 03:22:26;;;;;;;2.47;0.50;;;7.30;99.90;;;;;;5055467;28;20211;-49
2021/05/05 03:24:52;;;;;;;4.53;0.90;;;7.30;99.90;;;;;;5036901;28;20213;-54
2021/05/05 03:27:19;;;;;;;2.63;0.80;;;7.30;99.90;;;;;;5041603;28;20213;-51
2021/05/05 03:29:45;;;;;;;5.70;1.07;;;7.30;99.90;;;;;;5058361;28;20652;-54
2021/05/05 03:32:11;;;;;;;1.37;0.77;;;7.20;99.90;;;;;;5040088;28;20308;-50
2021/05/05 03:34:37;;;;;;;3.90;1.03;;;7.20;99.90;;;;;;5042783;28;20195;-53
2021/05/05 03:37:03;;;;;;;3.70;1.00;;;7.20;99.90;;;;;;5038421;28;20210;-51
2021/05/05 03:39:30;;;;;;;2.77;0.80;;;7.10;99.90;;;;;;5050029;28;20218;-52
2021/05/05 03:41:56;;;;;;;4.17;1.00;;;7.20;99.90;;;;;;5051759;28;20183;-50
2021/05/05 03:44:23;;;;;;;5.47;1.37;;;7.10;99.90;;;;;;5043838;28;20199;-52
2021/05/05 03:46:49;;;;;;;2.30;1.10;;;7.10;99.90;;;;;;5035819;28;20203;-55
2021/05/05 03:49:15;;;;;;;1.77;1.20;;;7.10;99.90;;;;;;5039652;28;20190;-57
2021/05/05 03:51:41;;;;;;;2.10;0.77;;;7.10;99.90;;;;;;5032232;28;20235;-56
2021/05/05 03:54:07;;;;;;;3.10;0.90;;;7.10;99.90;;;;;;5050321;28;20202;-54
2021/05/05 03:56:34;;;;;;;4.67;1.50;;;7.00;99.90;;;;;;5040832;28;20257;-50
2021/05/05 03:59:01;;;;;;;5.27;2.00;;;7.00;99.90;;;;;;5038280;28;20203;-49
2021/05/05 04:01:27;;;;;;;4.20;1.23;;;7.00;99.90;;;;;;5039712;28;20198;-48
2021/05/05 04:03:53;;;;;;;5.40;1.20;;;7.00;99.90;;;;;;5044578;28;20276;-50
2021/05/05 04:06:19;;;;;;;3.80;0.80;;;6.90;99.90;;;;;;5039513;28;20194;-53
2021/05/05 04:08:45;;;;;;;7.63;1.53;;;6.90;99.90;;;;;;5047462;28;20225;-52
2021/05/05 04:11:12;;;;;;;3.00;0.80;;;6.80;99.90;;;;;;5041367;28;20191;-55
2021/05/05 04:13:39;;;;;;;8.60;1.60;;;6.80;99.90;;;;;;5035993;28;21412;-50
2021/05/05 04:16:05;;;;;;;7.80;2.83;;;6.70;99.90;;;;;;5042502;28;20199;-50
2021/05/05 04:18:31;;;;;;;4.10;0.80;;;6.70;99.90;;;;;;5038441;28;20227;-52
2021/05/05 04:21:02;;;;;;;4.40;1.10;;;6.70;99.90;;;;;;5044809;28;20213;-47
2021/05/05 04:23:28;;;;;;;9.77;2.90;;;6.60;99.90;;;;;;5021916;28;20234;-55
2021/05/05 04:25:55;;;;;;;8.77;1.40;;;6.70;99.90;;;;;;5033069;28;20282;-49
2021/05/05 04:28:21;;;;;;;4.17;1.07;;;6.70;99.90;;;;;;5046619;28;20261;-48
2021/05/05 04:30:48;;;;;;;6.03;1.73;;;6.70;99.90;;;;;;5033266;28;20206;-52
2021/05/05 04:33:15;;;;;;;7.03;2.27;;;6.70;99.90;;;;;;5037236;28;20211;-52
2021/05/05 04:35:41;;;;;;;6.17;1.67;;;6.60;99.90;;;;;;5026144;28;20242;-56
2021/05/05 04:38:07;;;;;;;5.87;1.27;;;6.60;99.90;;;;;;5036054;28;20218;-52
2021/05/05 04:40:33;;;;;;;8.57;1.60;;;6.60;99.90;;;;;;5032102;28;20207;-49
2021/05/05 04:42:59;;;;;;;3.10;1.63;;;6.70;99.90;;;;;;5041171;28;20551;-49
2021/05/05 04:45:25;;;;;;;6.03;2.37;;;6.70;99.90;;;;;;5042232;28;20194;-52
2021/05/05 04:47:53;;;;;;;2.73;1.37;;;6.60;99.90;;;;;;5047493;28;20205;-50
2021/05/05 04:50:19;;;;;;;2.83;1.60;;;6.70;99.90;;;;;;5043057;28;20704;-56
2021/05/05 04:52:45;;;;;;;4.67;1.60;;;6.70;99.90;;;;;;5046094;28;20221;-51
2021/05/05 04:55:12;;;;;;;10.03;2.00;;;6.80;99.90;;;;;;5042884;28;20546;-55
2021/05/05 04:57:38;;;;;;;4.93;1.50;;;6.80;99.90;;;;;;5046100;28;20923;-49
2021/05/05 05:00:06;;;;;;;4.13;1.97;;;6.80;99.90;;;;;;5044451;28;20195;-53
2021/05/05 05:02:33;;;;;;;3.80;0.70;;;6.90;99.90;;;;;;5063951;28;20225;-52
2021/05/05 05:05:00;;;;;;;8.87;2.30;;;6.90;99.90;;;;;;5036134;28;20204;-50
2021/05/05 05:07:27;;;;;;;10.33;2.07;;;6.80;99.90;;;;;;5037273;28;20855;-51
2021/05/05 05:09:53;;;;;;;3.30;0.77;;;6.80;99.90;;;;;;5042646;28;20210;-49
2021/05/05 05:12:19;;;;;;;8.80;2.90;;;6.90;99.90;;;;;;5050445;28;20210;-55
2021/05/05 05:14:45;;;;;;;4.63;1.43;;;6.90;99.90;;;;;;5065059;28;20733;-50
2021/05/05 05:17:11;;;;;;;5.57;1.90;;;6.90;99.90;;;;;;5041036;28;20285;-53
2021/05/05 05:19:37;;;;;;;3.27;1.00;;;6.90;99.90;;;;;;5053015;28;20214;-50
2021/05/05 05:22:04;;;;;;;7.50;2.03;;;6.90;99.90;;;;;;5066028;28;20199;-54
2021/05/05 05:24:30;;;;;;;5.70;1.43;;;7.00;99.90;;;;;;5048788;28;21089;-53
2021/05/05 05:26:56;;;;;;;4.90;1.50;;;6.90;99.90;;;;;;5054217;28;20648;-53
2021/05/05 05:29:23;;;;;;;9.10;2.50;;;6.90;99.90;;;;;;5038874;28;21028;-51
2021/05/05 05:31:49;;;;;;;4.57;1.80;;;7.00;99.90;;;;;;5039815;28;20207;-50
2021/05/05 05:34:15;;;;;;;4.40;1.80;;;7.00;99.90;;;;;;5043181;28;20205;-52
2021/05/05 05:36:41;;;;;;;9.17;2.20;;;7.00;99.90;;;;;;5044919;28;20203;-50
2021/05/05 05:39:09;;;;;;;6.20;2.10;;;7.00;99.90;;;;;;5039794;28;20584;-53
2021/05/05 05:41:36;;;;;;;5.10;1.37;;;7.10;99.90;;;;;;5047249;28;20259;-54
2021/05/05 05:44:02;;;;;;;3.87;0.80;;;7.10;99.90;;;;;;5042084;28;20272;-53
2021/05/05 05:46:28;;;;;;;3.93;1.50;;;7.10;99.90;;;;;;5036736;28;20199;-49
2021/05/05 05:48:55;;;;;;;4.80;1.40;;;7.10;99.90;;;;;;5045302;28;20195;-53
2021/05/05 05:51:21;;;;;;;6.20;1.40;;;7.20;99.90;;;;;;5036049;28;20260;-54
2021/05/05 05:53:47;;;;;;;3.60;1.53;;;7.20;99.90;;;;;;5045618;28;20208;-50
2021/05/05 05:56:14;;;;;;;5.10;1.63;;;7.20;99.90;;;;;;5034244;28;20206;-52
2021/05/05 05:58:40;;;;;;;5.20;1.00;;;7.20;99.90;;;;;;5048222;28;20223;-51
2021/05/05 06:01:06;;;;;;;5.23;2.20;;;7.20;99.90;;;;;;5035140;28;20278;-52
2021/05/05 06:03:33;;;;;;;3.53;1.80;;;7.20;99.90;;;;;;5043703;28;21099;-49
2021/05/05 06:05:59;;;;;;;6.37;2.33;;;7.20;99.90;;;;;;5047670;28;20198;-53
2021/05/05 06:08:25;;;;;;;4.73;1.40;;;7.20;99.90;;;;;;5037605;28;20210;-48
2021/05/05 06:10:51;;;;;;;4.43;1.70;;;7.20;99.90;;;;;;5044226;28;20206;-51
2021/05/05 06:13:18;;;;;;;7.40;2.20;;;7.10;99.90;;;;;;5030422;28;20215;-54
2021/05/05 06:15:45;;;;;;;3.33;1.03;;;7.10;99.90;;;;;;5045854;28;20222;-52
2021/05/05 06:18:11;;;;;;;6.63;1.73;;;7.10;99.90;;;;;;5037142;28;20223;-54
2021/05/05 06:20:37;;;;;;;8.13;2.70;;;7.00;99.90;;;;;;5037479;28;20199;-49
2021/05/05 06:23:03;;;;;;;7.87;1.97;;;7.00;99.90;;;;;;5039781;28;20218;-55
2021/05/05 06:25:30;;;;;;;10.37;2.47;;;6.90;99.90;;;;;;5049826;28;20994;-53
2021/05/05 06:27:56;;;;;;;7.57;2.20;;;6.90;99.90;;;;;;5039028;28;20196;-51
2021/05/05 06:30:23;;;;;;;2.87;1.47;;;6.90;99.90;;;;;;5035495;28;20206;-51
2021/05/05 06:32:50;;;;;;;3.50;1.50;;;6.80;99.90;;;;;;5041315;28;20226;-52
2021/05/05 06:35:16;;;;;;;8.70;2.00;;;6.80;99.90;;;;;;5042040;28;20191;-54
2021/05/05 06:37:42;;;;;;;4.03;1.70;;;6.80;99.90;;;;;;5046472;28;20268;-52
2021/05/05 06:40:10;;;;;;;5.97;1.80;;;6.80;99.90;;;;;;5038163;28;20228;-56
2021/05/05 06:42:37;;;;;;;6.40;2.20;;;6.80;99.90;;;;;;5042272;28;20822;-52
2021/05/05 06:45:03;;;;;;;2.17;0.70;;;6.80;99.90;;;;;;5041883;28;20257;-56
2021/05/05 06:47:30;;;;;;;4.07;2.07;;;6.80;99.90;;;;;;5053856;28;20194;-56
2021/05/05 06:49:56;;;;;;;6.70;1.70;;;6.80;99.90;;;;;;5036722;28;21084;-50
2021/05/05 06:52:23;;;;;;;2.40;1.30;;;6.80;99.90;;;;;;5049726;28;20264;-56
2021/05/05 06:54:49;;;;;;;7.10;2.23;;;6.80;99.90;;;;;;5031648;28;20581;-54
2021/05/05 06:57:15;;;;;;;6.70;2.10;;;6.80;99.90;;;;;;5043218;28;20621;-50
2021/05/05 06:59:41;;;;;;;7.73;3.57;;;6.80;99.90;;;;;;5037894;28;20570;-54
2021/05/05 07:02:08;;;;;;;8.23;1.80;;;6.80;99.90;;;;;;5037049;28;20257;-53
2021/05/05 07:04:35;;;;;;;3.87;1.50;;;6.70;99.90;;;;;;5038085;28;20209;-52
2021/05/05 07:07:01;;;;;;;6.17;2.20;;;6.70;99.90;;;;;;5035529;28;20310;-50
2021/05/05 07:09:27;;;;;;;4.33;1.00;;;6.70;99.90;;;;;;5041669;28;20203;-53
2021/05/05 07:11:53;;;;;;;9.93;1.93;;;6.70;99.90;;;;;;5035326;28;20840;-52
2021/05/05 07:14:19;;;;;;;4.63;1.20;;;6.70;99.90;;;;;;5035191;28;20207;-54
2021/05/05 07:16:46;;;;;;;8.00;1.97;;;6.60;99.90;;;;;;5036245;28;20208;-54
2021/05/05 07:19:12;;;;;;;3.27;1.20;;;6.50;99.90;;;;;;5049531;28;20207;-49
2021/05/05 07:21:39;;;;;;;6.53;2.40;;;6.50;99.90;;;;;;5054156;28;20235;-56
2021/05/05 07:24:06;;;;;;;16.50;4.10;;;6.50;99.90;;;;;;5038194;28;20285;-51
2021/05/05 07:26:33;;;;;;;6.00;1.63;;;6.50;99.90;;;;;;5043720;28;20196;-52
2021/05/05 07:28:59;;;;;;;9.30;3.50;;;6.50;99.90;;;;;;5038847;28;20218;-49
2021/05/05 07:31:25;;;;;;;5.90;1.73;;;6.50;99.90;;;;;;5029943;28;20219;-54
2021/05/05 07:33:51;;;;;;;7.57;1.60;;;6.50;99.90;;;;;;5043070;28;20222;-54
2021/05/05 07:36:22;;;;;;;6.77;2.10;;;6.50;99.90;;;;;;5043445;28;20282;-50
2021/05/05 07:38:59;;;;;;;6.23;1.50;;;6.50;99.90;;;;;;5040528;28;20219;-53
2021/05/05 07:42:21;;;;;;;3.87;1.40;;;6.50;99.90;;;;;;5043725;28;20195;-54
2021/05/05 07:47:23;;;;;;;3.47;0.90;;;6.50;99.90;;;;;;5029246;28;20286;-53
2021/05/05 07:49:51;;;;;;;2.63;1.37;;;6.40;99.90;;;;;;5027300;28;20214;-49
2021/05/05 07:52:18;;;;;;;6.47;2.37;;;6.40;99.90;;;;;;5063162;28;20334;-54
2021/05/05 07:54:46;;;;;;;4.53;1.40;;;6.40;99.90;;;;;;5059777;28;20183;-55
2021/05/05 07:57:12;;;;;;;5.53;1.70;;;6.40;99.90;;;;;;5049658;28;20217;-49
2021/05/05 07:59:39;;;;;;;11.13;3.13;;;6.50;99.90;;;;;;5036666;28;20999;-51
2021/05/05 08:02:05;;;;;;;17.10;3.87;;;6.50;99.90;;;;;;5032576;28;20223;-52
2021/05/05 08:04:32;;;;;;;2.20;1.00;;;6.60;99.90;;;;;;5037695;28;20212;-53
2021/05/05 08:06:58;;;;;;;10.13;2.73;;;6.60;99.90;;;;;;5034192;28;20200;-51
2021/05/05 08:09:25;;;;;;;5.80;2.27;;;6.60;99.90;;;;;;5039579;28;20241;-55
2021/05/05 08:11:52;;;;;;;3.40;1.00;;;6.70;99.90;;;;;;5038412;28;20191;-51
2021/05/05 08:14:19;;;;;;;1.50;0.93;;;6.80;99.90;;;;;;5042745;28;20253;-54
2021/05/05 08:16:46;;;;;;;2.37;1.50;;;6.80;99.90;;;;;;5029233;28;20233;-50
2021/05/05 08:19:13;;;;;;;2.73;1.00;;;6.80;99.90;;;;;;5037721;28;20566;-52
2021/05/05 08:21:41;;;;;;;2.33;1.33;;;6.90;99.90;;;;;;5028932;28;20207;-49
2021/05/05 08:24:08;;;;;;;4.00;1.30;;;6.90;99.90;;;;;;5042945;28;20219;-54
2021/05/05 08:26:34;;;;;;;3.40;1.47;;;6.90;99.90;;;;;;5039178;28;20207;-54
2021/05/05 08:29:01;;;;;;;3.03;1.37;;;6.90;99.90;;;;;;5040899;28;20592;-51
2021/05/05 08:31:27;;;;;;;4.43;0.77;;;6.90;99.90;;;;;;5041058;28;20191;-52
2021/05/05 08:33:53;;;;;;;2.47;1.13;;;6.90;99.90;;;;;;5029883;28;20256;-54
2021/05/05 08:36:19;;;;;;;4.70;1.83;;;6.90;99.90;;;;;;5042238;28;20191;-56
2021/05/05 08:38:46;;;;;;;6.60;2.00;;;6.90;99.90;;;;;;5028996;28;20386;-52
2021/05/05 08:41:14;;;;;;;6.20;1.73;;;6.90;99.90;;;;;;5038638;28;20204;-53
2021/05/05 08:43:41;;;;;;;5.87;0.90;;;6.90;99.90;;;;;;5039979;28;20215;-49
2021/05/05 08:46:08;;;;;;;3.00;1.10;;;6.80;99.90;;;;;;5042513;28;20199;-51
2021/05/05 08:48:36;;;;;;;4.43;1.20;;;6.80;99.90;;;;;;5036507;28;20206;-55
2021/05/05 08:51:05;;;;;;;2.23;1.13;;;6.80;99.90;;;;;;5038734;28;20295;-52
2021/05/05 08:53:32;;;;;;;7.97;1.70;;;6.80;99.90;;;;;;5035538;28;20593;-54
2021/05/05 08:55:58;;;;;;;5.27;1.30;;;6.90;99.90;;;;;;5054162;28;20665;-53
2021/05/05 08:58:24;;;;;;;4.43;1.30;;;6.90;99.90;;;;;;5033279;28;20219;-54
2021/05/05 09:00:50;;;;;;;6.23;1.40;;;6.90;99.90;;;;;;5035712;28;20222;-53
2021/05/05 09:03:17;;;;;;;3.47;1.53;;;6.90;99.90;;;;;;5042236;28;20215;-52
2021/05/05 09:05:50;;;;;;;6.90;1.30;;;6.90;99.90;;;;;;5025151;28;20233;-50
2021/05/05 09:08:16;;;;;;;7.60;1.80;;;6.90;99.90;;;;;;5051587;28;20548;-49
2021/05/05 09:10:55;;;;;;;5.33;1.53;;;6.90;99.90;;;;;;5023482;28;20794;-49
2021/05/05 09:13:42;;;;;;;3.00;1.40;;;6.90;99.90;;;;;;5034250;28;20310;-54
2021/05/05 09:16:09;;;;;;;5.90;1.30;;;7.00;99.90;;;;;;5037637;28;20223;-51
2021/05/05 09:18:52;;;;;;;4.97;1.70;;;7.00;99.90;;;;;;5019881;28;20233;-55
2021/05/05 09:21:24;;;;;;;3.97;1.20;;;7.00;99.90;;;;;;5030781;28;20200;-55
2021/05/05 09:23:50;;;;;;;5.47;1.93;;;7.00;99.90;;;;;;5032043;28;20219;-53
2021/05/05 09:26:34;;;;;;;6.30;1.57;;;7.00;99.90;;;;;;5033237;28;20204;-56
2021/05/05 09:29:00;;;;;;;2.13;1.03;;;7.10;99.90;;;;;;5042665;28;20265;-52
2021/05/05 09:31:33;;;;;;;3.43;0.90;;;7.00;99.90;;;;;;5047012;28;20804;-55
2021/05/05 09:34:01;;;;;;;5.00;1.50;;;7.00;99.90;;;;;;5041691;28;20227;-55
2021/05/05 09:36:27;;;;;;;4.77;1.50;;;7.00;99.90;;;;;;5038342;28;20231;-56
2021/05/05 09:38:54;;;;;;;3.33;1.10;;;7.10;99.90;;;;;;5054441;28;20698;-54
2021/05/05 09:41:21;;;;;;;5.23;1.60;;;7.10;99.90;;;;;;5042453;28;20205;-52
2021/05/05 09:43:48;;;;;;;3.63;1.30;;;7.10;99.90;;;;;;5055095;28;20214;-50
2021/05/05 09:46:41;;;;;;;3.57;1.07;;;7.20;99.90;;;;;;5037906;28;20202;-53
2021/05/05 09:49:24;;;;;;;4.07;0.77;;;7.20;99.90;;;;;;5039406;28;20250;-51
2021/05/05 09:51:55;;;;;;;3.70;1.47;;;7.30;99.90;;;;;;5032027;28;20203;-53
2021/05/05 09:54:23;;;;;;;2.77;1.30;;;7.30;99.90;;;;;;5043970;28;20609;-54
2021/05/05 09:56:50;;;;;;;7.20;1.23;;;7.30;99.90;;;;;;5043422;28;20201;-51
2021/05/05 09:59:16;;;;;;;3.57;1.00;;;7.30;99.90;;;;;;5037164;28;20207;-54
2021/05/05 10:01:58;;;;;;;2.70;1.33;;;7.30;99.90;;;;;;5037494;28;20201;-53
2021/05/05 10:04:26;;;;;;;1.77;1.10;;;7.30;99.90;;;;;;5040918;28;20218;-55
2021/05/05 10:06:57;;;;;;;3.50;1.23;;;7.30;99.90;;;;;;5028899;28;20891;-50
2021/05/05 10:09:24;;;;;;;4.03;1.23;;;7.40;99.90;;;;;;5048340;28;20192;-53
2021/05/05 10:11:51;;;;;;;5.37;0.80;;;7.40;99.90;;;;;;5043018;28;22666;-51
2021/05/05 10:14:20;;;;;;;2.13;0.63;;;7.40;99.90;;;;;;5038544;28;20204;-53
2021/05/05 10:16:48;;;;;;;6.93;1.70;;;7.50;99.90;;;;;;5036833;28;20206;-55
2021/05/05 10:19:16;;;;;;;4.90;1.10;;;7.50;99.90;;;;;;5038046;28;20696;-54
2021/05/05 10:21:50;;;;;;;4.13;1.13;;;7.70;99.90;;;;;;5029652;28;20493;-50
2021/05/05 10:24:18;;;;;;;2.80;1.10;;;7.80;99.90;;;;;;5043521;28;20205;-55
2021/05/05 10:26:45;;;;;;;4.30;1.10;;;7.90;99.90;;;;;;5046268;28;20205;-53
2021/05/05 10:29:11;;;;;;;2.70;1.07;;;8.00;99.90;;;;;;5048049;28;20285;-51
2021/05/05 10:31:39;;;;;;;3.03;1.50;;;7.90;99.90;;;;;;5036030;28;20229;-53
2021/05/05 10:34:15;;;;;;;3.27;0.90;;;8.00;99.90;;;;;;5042800;28;20214;-51
2021/05/05 10:36:46;;;;;;;5.47;1.23;;;8.00;99.90;;;;;;5029828;28;20202;-54
2021/05/05 10:39:37;;;;;;;4.90;0.83;;;8.00;99.90;;;;;;5033606;28;20215;-54
2021/05/05 10:42:06;;;;;;;3.47;0.80;;;8.10;99.90;;;;;;5045608;28;20187;-51
2021/05/05 10:44:37;;;;;;;2.07;0.73;;;8.20;99.90;;;;;;5029765;28;20200;-53
2021/05/05 10:47:12;;;;;;;0.77;0.63;;;8.20;99.90;;;;;;5034856;28;20211;-49
2021/05/05 10:50:14;;;;;;;3.40;1.37;;;8.20;99.90;;;;;;5029110;28;20285;-50
2021/05/05 10:53:07;;;;;;;4.10;1.17;;;8.20;99.90;;;;;;5041744;28;20227;-53
2021/05/05 10:55:53;;;;;;;3.33;0.90;;;8.20;99.90;;;;;;5043503;28;20192;-50
2021/05/05 10:58:24;;;;;;;2.23;0.73;;;8.30;99.90;;;;;;5039690;28;20825;-52
2021/05/05 11:01:02;;;;;;;5.57;1.10;;;8.30;99.90;;;;;;5029280;28;20203;-53
2021/05/05 11:03:52;;;;;;;4.53;0.80;;;8.30;99.90;;;;;;5033943;28;20207;-53
2021/05/05 11:06:45;;;;;;;3.23;0.90;;;8.40;99.90;;;;;;5031753;28;20324;-50
2021/05/05 11:09:46;;;;;;;3.37;0.90;;;8.30;99.90;;;;;;5023178;28;20219;-49
2021/05/05 11:12:40;;;;;;;2.10;0.97;;;8.20;99.90;;;;;;5029553;28;20250;-51
2021/05/05 11:15:08;;;;;;;2.30;1.13;;;8.10;99.90;;;;;;5017489;28;20192;-49
2021/05/05 11:17:34;;;;;;;5.53;0.70;;;8.00;99.90;;;;;;5037462;28;20580;-51
2021/05/05 11:20:00;;;;;;;5.00;1.70;;;8.00;99.90;;;;;;5027837;28;20684;-53
2021/05/05 11:22:46;;;;;;;5.47;1.10;;;8.00;99.90;;;;;;5043251;28;20727;-52
2021/05/05 11:25:25;;;;;;;3.77;1.10;;;7.90;99.90;;;;;;5035402;28;20191;-51
2021/05/05 11:27:59;;;;;;;2.50;0.87;;;7.80;99.90;;;;;;5042213;28;20204;-55
2021/05/05 11:30:49;;;;;;;2.17;0.77;;;7.80;99.90;;;;;;5042844;28;20219;-50
2021/05/05 11:33:16;;;;;;;4.50;1.13;;;7.70;99.90;;;;;;5054112;28;20219;-53
2021/05/05 11:35:43;;;;;;;5.37;1.13;;;7.60;99.90;;;;;;5049567;28;20195;-50
2021/05/05 11:38:18;;;;;;;1.07;0.47;;;7.60;99.90;;;;;;5043829;28;20690;-51
2021/05/05 11:40:52;;;;;;;3.63;0.73;;;7.50;99.90;;;;;;5043159;28;20217;-51
2021/05/05 11:43:19;;;;;;;2.13;1.00;;;7.50;99.90;;;;;;5054771;28;20218;-53
2021/05/05 11:45:54;;;;;;;1.40;0.80;;;7.60;99.90;;;;;;5038575;28;20257;-54
2021/05/05 11:48:35;;;;;;;1.83;0.70;;;7.60;99.90;;;;;;5038810;28;20199;-53
2021/05/05 11:51:14;;;;;;;4.10;1.00;;;7.50;99.90;;;;;;5034969;28;20673;-52
2021/05/05 11:53:40;;;;;;;2.43;1.00;;;7.50;99.90;;;;;;5051785;28;20229;-52
2021/05/05 11:56:16;;;;;;;1.37;0.80;;;7.40;99.90;;;;;;5037142;28;20198;-52
2021/05/05 11:58:42;;;;;;;1.90;1.10;;;7.40;99.90;;;;;;5045333;28;20223;-51
2021/05/05 12:01:08;;;;;;;0.87;0.70;;;7.40;99.90;;;;;;5037320;28;20199;-51
2021/05/05 12:03:35;;;;;;;2.93;1.40;;;7.40;99.90;;;;;;5038712;28;20623;-53
2021/05/05 12:06:01;;;;;;;5.53;1.40;;;7.50;99.90;;;;;;5045376;28;20955;-52
2021/05/05 12:08:29;;;;;;;3.37;1.30;;;7.50;99.90;;;;;;5041772;28;20207;-53
2021/05/05 12:10:58;;;;;;;2.03;0.80;;;7.60;99.90;;;;;;5032235;28;20277;-54
2021/05/05 12:13:26;;;;;;;2.50;0.90;;;7.60;99.90;;;;;;5052416;28;20217;-51
2021/05/05 12:16:00;;;;;;;3.77;1.27;;;7.70;99.90;;;;;;5042496;28;20658;-52
2021/05/05 12:18:31;;;;;;;1.23;0.73;;;7.90;99.90;;;;;;5033604;28;20541;-52
2021/05/05 12:21:04;;;;;;;3.13;0.80;;;8.10;99.90;;;;;;5037719;28;20687;-55
2021/05/05 12:23:37;;;;;;;1.33;0.67;;;8.10;99.90;;;;;;5023254;28;20208;-50
2021/05/05 12:26:18;;;;;;;2.10;0.73;;;8.10;99.90;;;;;;5022818;28;20211;-55
2021/05/05 12:28:46;;;;;;;4.03;0.97;;;8.20;99.90;;;;;;5042214;28;20238;-49
2021/05/05 12:31:14;;;;;;;3.03;0.87;;;8.30;99.90;;;;;;5025170;28;20199;-53
2021/05/05 12:33:42;;;;;;;2.53;1.03;;;8.30;99.90;;;;;;5037855;28;20227;-52
2021/05/05 12:36:11;;;;;;;2.97;1.03;;;8.30;99.90;;;;;;5046086;28;20255;-55
2021/05/05 12:38:39;;;;;;;1.20;0.47;;;8.30;99.90;;;;;;5038560;28;20219;-53
2021/05/05 12:41:07;;;;;;;2.43;0.80;;;8.20;99.90;;;;;;5035660;28;20609;-55
2021/05/05 12:43:34;;;;;;;4.67;1.33;;;8.20;99.90;;;;;;5052144;28;20222;-51
2021/05/05 12:46:03;;;;;;;2.57;1.10;;;8.10;99.90;;;;;;5062944;28;20547;-53
2021/05/05 12:48:36;;;;;;;6.03;1.30;;;8.00;99.90;;;;;;5052204;28;20191;-50
2021/05/05 12:51:09;;;;;;;2.90;1.00;;;8.00;99.90;;;;;;5038310;28;20280;-55
2021/05/05 12:53:50;;;;;;;4.73;1.13;;;8.00;99.90;;;;;;5049087;28;20245;-50
2021/05/05 12:56:18;;;;;;;5.33;1.00;;;8.00;99.90;;;;;;5029262;28;20202;-55
2021/05/05 12:58:46;;;;;;;6.30;1.03;;;7.90;99.90;;;;;;5042099;28;20211;-52
2021/05/05 13:01:15;;;;;;;6.70;1.13;;;8.00;99.90;;;;;;5040262;28;20253;-55
2021/05/05 13:03:42;;;;;;;4.90;1.20;;;8.00;99.90;;;;;;5042065;28;20241;-55
2021/05/05 13:06:11;;;;;;;3.27;1.33;;;8.00;99.90;;;;;;5047727;28;20199;-54
2021/05/05 13:08:45;;;;;;;7.37;1.60;;;8.00;99.90;;;;;;5039235;28;20266;-52